createdAt,value
2022-10-19T00:01:23.519Z,5.95
2022-10-19T00:04:27.500Z,4.93
2022-10-19T00:07:29.448Z,5.03
2022-10-19T00:10:35.241Z,5.13
2022-10-19T00:13:40.196Z,4.97
2022-10-19T00:21:28.370Z,4.63
2022-10-19T00:25:16.734Z,5.30
2022-10-19T00:28:18.965Z,5.75
2022-10-19T00:31:25.091Z,5.82
2022-10-19T00:34:28.936Z,5.00
2022-10-19T00:37:31.240Z,4.95
2022-10-19T00:40:46.166Z,6.20
2022-10-19T00:47:24.727Z,6.55
2022-10-19T00:50:27.951Z,4.80
2022-10-19T00:53:32.649Z,5.72
2022-10-19T00:56:43.759Z,5.68
2022-10-19T00:59:55.205Z,5.78
2022-10-19T01:02:59.747Z,4.93
2022-10-19T01:06:07.640Z,5.38
2022-10-19T01:09:11.048Z,6.27
2022-10-19T01:12:33.279Z,7.57
2022-10-19T01:15:59.806Z,6.03
2022-10-19T01:19:44.500Z,5.55
2022-10-19T01:23:25.089Z,5.63
2022-10-19T01:27:23.177Z,5.95
2022-10-19T01:30:31.585Z,5.47
2022-10-19T01:34:04.442Z,4.38
2022-10-19T01:37:48.271Z,5.30
2022-10-19T01:40:59.788Z,4.80
2022-10-19T01:44:52.191Z,6.13
2022-10-19T01:48:23.475Z,4.75
2022-10-19T01:51:32.094Z,4.55
2022-10-19T01:54:46.994Z,4.35
2022-10-19T01:58:06.239Z,3.95
2022-10-19T02:01:13.386Z,4.03
2022-10-19T02:04:20.211Z,4.22
2022-10-19T02:07:24.924Z,5.35
2022-10-19T02:10:29.108Z,4.78
2022-10-19T02:13:32.593Z,4.93
2022-10-19T02:16:45.330Z,4.45
2022-10-19T02:19:47.329Z,4.80
2022-10-19T02:22:51.209Z,5.18
2022-10-19T02:25:56.189Z,5.90
2022-10-19T02:29:04.860Z,6.57
2022-10-19T02:32:13.837Z,7.82
2022-10-19T02:35:26.139Z,6.13
2022-10-19T02:38:39.962Z,5.68
2022-10-19T02:42:22.125Z,6.30
2022-10-19T02:45:32.735Z,6.45
2022-10-19T02:48:38.831Z,6.30
2022-10-19T02:52:04.478Z,6.37
2022-10-19T02:55:08.211Z,6.38
2022-10-19T02:58:12.174Z,7.38
2022-10-19T03:01:17.335Z,6.25
2022-10-19T03:04:23.703Z,6.40
2022-10-19T03:07:36.249Z,5.85
2022-10-19T03:10:51.079Z,7.40
2022-10-19T03:18:06.525Z,6.13
2022-10-19T03:21:14.153Z,6.00
2022-10-19T03:24:16.314Z,7.15
2022-10-19T03:27:18.288Z,7.05
2022-10-19T03:30:20.348Z,7.18
2022-10-19T03:36:34.001Z,5.72
2022-10-19T03:39:36.208Z,6.53
2022-10-19T03:42:38.243Z,7.65
2022-10-19T03:45:40.384Z,6.43
2022-10-19T03:48:43.073Z,6.30
2022-10-19T03:51:45.107Z,6.03
2022-10-19T03:54:50.994Z,6.10
2022-10-19T03:57:53.113Z,6.10
2022-10-19T04:00:55.117Z,6.70
2022-10-19T04:04:02.755Z,6.85
2022-10-19T04:07:08.651Z,6.65
2022-10-19T04:10:10.632Z,6.22
2022-10-19T04:13:13.535Z,7.35
2022-10-19T04:16:15.551Z,7.32
2022-10-19T04:19:17.643Z,8.32
2022-10-19T04:22:19.709Z,7.50
2022-10-19T04:25:23.255Z,7.78
2022-10-19T04:28:25.381Z,7.45
2022-10-19T04:31:28.680Z,6.35
2022-10-19T04:34:30.714Z,7.88
2022-10-19T04:37:35.099Z,7.50
2022-10-19T04:40:37.851Z,7.32
2022-10-19T04:43:41.180Z,6.38
2022-10-19T04:46:43.694Z,7.38
2022-10-19T04:49:45.707Z,7.75
2022-10-19T04:52:47.764Z,6.80
2022-10-19T04:55:49.911Z,7.30
2022-10-19T04:58:58.143Z,10.13
2022-10-19T05:02:00.257Z,9.18
2022-10-19T05:05:02.530Z,8.77
2022-10-19T05:08:04.906Z,8.73
2022-10-19T05:11:12.634Z,9.10
2022-10-19T05:14:15.010Z,8.77
2022-10-19T05:17:17.255Z,9.65
2022-10-19T05:20:19.764Z,9.68
2022-10-19T05:23:22.334Z,9.57
2022-10-19T05:26:27.552Z,8.77
2022-10-19T05:29:30.325Z,6.95
2022-10-19T05:32:32.658Z,7.03
2022-10-19T05:35:34.705Z,6.50
2022-10-19T05:38:36.715Z,7.18
2022-10-19T05:41:39.237Z,13.65
2022-10-19T05:44:42.098Z,13.35
2022-10-19T05:47:44.837Z,10.75
2022-10-19T05:50:57.188Z,12.32
2022-10-19T05:53:59.610Z,11.10
2022-10-19T05:57:02.771Z,9.23
2022-10-19T06:00:05.486Z,9.77
2022-10-19T06:03:13.830Z,9.23
2022-10-19T06:06:15.877Z,9.20
2022-10-19T06:09:17.914Z,9.77
2022-10-19T06:12:24.246Z,9.35
2022-10-19T06:15:27.202Z,9.40
2022-10-19T06:18:29.797Z,10.43
2022-10-19T06:21:33.921Z,7.55
2022-10-19T06:24:37.353Z,7.00
2022-10-19T06:27:39.586Z,7.95
2022-10-19T06:30:41.954Z,7.30
2022-10-19T06:33:47.281Z,10.15
2022-10-19T06:36:51.347Z,10.38
2022-10-19T06:39:53.512Z,9.50
2022-10-19T06:42:56.476Z,9.23
2022-10-19T06:45:58.562Z,10.27
2022-10-19T06:49:02.060Z,10.00
2022-10-19T06:52:05.929Z,11.00
2022-10-19T06:55:08.523Z,12.23
2022-10-19T06:58:10.479Z,12.73
2022-10-19T07:01:14.271Z,13.15
2022-10-19T07:04:18.006Z,12.18
2022-10-19T07:07:20.116Z,11.82
2022-10-19T07:10:22.279Z,12.10
2022-10-19T07:13:25.646Z,13.57
2022-10-19T07:16:27.660Z,12.60
2022-10-19T07:19:29.689Z,12.13
2022-10-19T07:22:31.765Z,13.38
2022-10-19T07:25:34.103Z,12.82
2022-10-19T07:28:36.186Z,13.73
2022-10-19T07:31:38.291Z,11.95
2022-10-19T07:34:40.397Z,12.20
2022-10-19T07:37:43.745Z,12.27
2022-10-19T07:40:47.461Z,13.18
2022-10-19T07:43:51.520Z,11.60
2022-10-19T07:46:53.675Z,12.00
2022-10-19T07:49:55.839Z,12.13
2022-10-19T07:52:59.063Z,11.35
2022-10-19T07:56:19.023Z,9.07
2022-10-19T07:59:23.617Z,10.65
2022-10-19T08:02:30.909Z,13.30
2022-10-19T08:05:42.452Z,11.18
2022-10-19T08:08:46.525Z,11.48
2022-10-19T08:11:48.849Z,11.07
2022-10-19T08:14:53.179Z,10.85
2022-10-19T08:17:55.396Z,9.80
2022-10-19T08:20:57.842Z,9.27
2022-10-19T08:24:01.020Z,9.38
2022-10-19T08:27:03.140Z,13.70
2022-10-19T08:30:05.545Z,10.68
2022-10-19T08:33:08.504Z,13.48
2022-10-19T08:36:12.124Z,13.98
2022-10-19T08:39:14.828Z,7.00
2022-10-19T08:42:23.512Z,11.55
2022-10-19T08:48:43.939Z,9.75
2022-10-19T08:51:53.944Z,8.07
2022-10-19T08:55:02.893Z,10.68
2022-10-19T08:58:13.732Z,9.50
2022-10-19T09:01:39.833Z,11.65
2022-10-19T09:04:51.175Z,11.65
2022-10-19T09:07:54.919Z,8.73
2022-10-19T09:10:57.993Z,10.35
2022-10-19T09:14:12.153Z,12.95
2022-10-19T09:17:17.419Z,12.30
2022-10-19T09:20:22.558Z,11.45
2022-10-19T09:23:39.951Z,10.95
2022-10-19T09:27:03.008Z,7.78
2022-10-19T09:30:21.916Z,7.63
2022-10-19T09:33:40.338Z,7.43
2022-10-19T09:36:51.190Z,8.18
2022-10-19T09:39:56.109Z,9.90
2022-10-19T09:42:59.389Z,7.40
2022-10-19T09:46:19.378Z,7.75
2022-10-19T09:49:44.555Z,6.97
2022-10-19T09:52:48.634Z,5.68
2022-10-19T09:56:04.854Z,5.32
2022-10-19T09:59:22.255Z,2.67
2022-10-19T10:02:33.481Z,3.60
2022-10-19T10:05:39.546Z,2.70
2022-10-19T10:08:48.983Z,3.08
2022-10-19T10:14:56.150Z,3.42
2022-10-19T10:17:58.780Z,3.22
2022-10-19T10:21:07.997Z,2.78
2022-10-19T10:24:13.052Z,2.75
2022-10-19T10:27:30.230Z,2.50
2022-10-19T10:30:37.631Z,3.45
2022-10-19T10:33:45.148Z,2.60
2022-10-19T10:36:51.378Z,2.80
2022-10-19T10:39:58.965Z,3.03
2022-10-19T10:43:17.506Z,2.83
2022-10-19T10:46:25.515Z,3.53
2022-10-19T10:49:34.505Z,3.05
2022-10-19T10:55:39.798Z,2.22
2022-10-19T10:58:51.356Z,1.70
2022-10-19T11:02:12.326Z,1.75
2022-10-19T11:05:45.584Z,3.03
2022-10-19T11:09:08.082Z,2.50
2022-10-19T11:12:15.926Z,2.17
2022-10-19T11:15:30.922Z,1.60
2022-10-19T11:18:38.175Z,2.33
2022-10-19T11:21:52.185Z,2.25
2022-10-19T11:25:21.498Z,1.65
2022-10-19T11:28:55.796Z,2.22
2022-10-19T11:31:58.498Z,2.10
2022-10-19T11:35:40.680Z,2.08
2022-10-19T11:39:01.980Z,2.30
2022-10-19T11:42:19.662Z,2.15
2022-10-19T11:45:28.903Z,2.30
2022-10-19T11:48:55.001Z,2.28
2022-10-19T11:52:16.149Z,2.60
2022-10-19T11:55:36.840Z,3.05
2022-10-19T11:58:50.705Z,3.08
2022-10-19T12:01:52.693Z,2.85
2022-10-19T12:04:57.409Z,2.40
2022-10-19T12:08:27.173Z,2.25
2022-10-19T12:11:47.946Z,2.13
2022-10-19T12:14:56.019Z,2.25
2022-10-19T12:18:05.143Z,2.17
2022-10-19T12:21:18.228Z,2.08
2022-10-19T12:24:23.467Z,2.65
2022-10-19T12:27:35.950Z,2.70
2022-10-19T12:30:39.739Z,2.60
2022-10-19T12:33:46.720Z,3.15
2022-10-19T12:37:11.104Z,2.10
2022-10-19T12:40:38.660Z,2.85
2022-10-19T12:44:20.968Z,2.10
2022-10-19T12:47:24.954Z,3.30
2022-10-19T12:50:57.268Z,3.08
2022-10-19T12:54:09.797Z,2.28
2022-10-19T12:57:29.024Z,2.10
2022-10-19T13:00:34.189Z,3.22
2022-10-19T13:03:42.698Z,2.28
2022-10-19T13:06:50.350Z,2.58
2022-10-19T13:10:01.662Z,3.38
2022-10-19T13:13:03.993Z,2.83
2022-10-19T13:16:29.172Z,3.45
2022-10-19T13:19:31.997Z,3.30
2022-10-19T13:22:34.222Z,3.88
2022-10-19T13:25:40.742Z,2.78
2022-10-19T13:28:53.449Z,3.08
2022-10-19T13:31:55.661Z,2.95
2022-10-19T13:35:26.850Z,3.28
2022-10-19T13:38:43.974Z,4.03
2022-10-19T13:41:48.974Z,3.85
2022-10-19T13:44:53.223Z,3.45
2022-10-19T13:48:10.915Z,3.45
2022-10-19T13:51:31.124Z,3.28
2022-10-19T13:54:42.413Z,3.63
2022-10-19T13:58:08.242Z,3.78
2022-10-19T14:01:21.553Z,3.90
2022-10-19T14:04:41.516Z,3.58
2022-10-19T14:08:01.696Z,3.45
2022-10-19T14:11:06.550Z,3.97
2022-10-19T14:14:11.996Z,4.60
2022-10-19T14:17:25.555Z,4.72
2022-10-19T14:20:37.747Z,4.38
2022-10-19T14:23:40.614Z,5.57
2022-10-19T14:26:42.699Z,6.07
2022-10-19T14:29:50.906Z,4.35
2022-10-19T14:32:58.042Z,6.55
2022-10-19T14:36:03.373Z,6.40
2022-10-19T14:39:05.965Z,7.10
2022-10-19T14:42:10.768Z,7.90
2022-10-19T14:45:27.562Z,9.85
2022-10-19T14:48:29.615Z,9.63
2022-10-19T14:51:40.607Z,6.57
2022-10-19T14:54:45.585Z,7.47
2022-10-19T14:57:51.779Z,8.10
2022-10-19T15:00:55.169Z,9.70
2022-10-19T15:03:57.340Z,6.40
2022-10-19T15:07:03.688Z,6.32
2022-10-19T15:10:09.654Z,5.32
2022-10-19T15:13:25.291Z,5.55
2022-10-19T15:16:43.335Z,5.32
2022-10-19T15:19:46.149Z,6.50
2022-10-19T15:22:48.211Z,7.70
2022-10-19T15:25:59.951Z,5.93
2022-10-19T15:29:22.328Z,6.85
2022-10-19T15:32:30.050Z,6.47
2022-10-19T15:35:40.587Z,12.60
2022-10-19T15:38:45.617Z,35.88
2022-10-19T15:41:47.742Z,20.90
2022-10-19T15:44:50.199Z,7.47
2022-10-19T15:48:10.278Z,8.15
2022-10-19T15:51:24.161Z,8.50
2022-10-19T15:54:26.183Z,7.68
2022-10-19T15:57:37.551Z,9.40
2022-10-19T16:00:41.192Z,7.55
2022-10-19T16:03:43.585Z,8.52
2022-10-19T16:06:46.840Z,7.85
2022-10-19T16:09:48.803Z,7.65
2022-10-19T16:12:51.286Z,7.10
2022-10-19T16:16:10.490Z,5.65
2022-10-19T16:19:13.448Z,5.75
2022-10-19T16:22:16.818Z,4.15
2022-10-19T16:25:19.161Z,3.75
2022-10-19T16:28:21.187Z,4.78
2022-10-19T16:31:24.240Z,4.53
2022-10-19T16:34:26.125Z,3.75
2022-10-19T16:37:28.316Z,4.30
2022-10-19T16:40:30.479Z,3.05
2022-10-19T16:43:33.052Z,3.40
2022-10-19T16:46:35.071Z,4.15
2022-10-19T16:49:37.219Z,3.50
2022-10-19T16:52:39.333Z,2.83
2022-10-19T16:55:42.146Z,4.10
2022-10-19T16:58:44.356Z,3.50
2022-10-19T17:01:47.139Z,4.07
2022-10-19T17:04:49.130Z,3.38
2022-10-19T17:07:51.060Z,3.42
2022-10-19T17:10:53.114Z,3.90
2022-10-19T17:13:58.955Z,2.92
2022-10-19T17:17:00.971Z,3.08
2022-10-19T17:20:03.357Z,4.47
2022-10-19T17:23:05.363Z,3.88
2022-10-19T17:26:09.141Z,2.90
2022-10-19T17:29:12.778Z,3.10
2022-10-19T17:32:14.950Z,4.05
2022-10-19T17:35:16.896Z,4.10
2022-10-19T17:38:18.976Z,2.80
2022-10-19T17:41:22.296Z,3.22
2022-10-19T17:44:24.314Z,2.97
2022-10-19T17:47:26.428Z,3.65
2022-10-19T17:50:28.533Z,3.25
2022-10-19T17:53:31.646Z,3.42
2022-10-19T17:56:35.013Z,3.20
2022-10-19T17:59:52.057Z,2.88
2022-10-19T18:02:54.900Z,3.00
2022-10-19T18:06:17.399Z,2.88
2022-10-19T18:09:19.559Z,2.13
2022-10-19T18:12:21.769Z,3.05
2022-10-19T18:15:24.741Z,2.50
2022-10-19T18:18:28.367Z,2.35
2022-10-19T18:21:34.920Z,3.13
2022-10-19T18:24:37.217Z,3.25
2022-10-19T18:27:39.654Z,2.60
2022-10-19T18:30:45.146Z,2.53
2022-10-19T18:33:49.456Z,3.15
2022-10-19T18:36:52.712Z,2.20
2022-10-19T18:39:54.784Z,2.50
2022-10-19T18:42:57.112Z,2.22
2022-10-19T18:46:01.102Z,1.85
2022-10-19T18:49:06.023Z,2.65
2022-10-19T18:52:08.716Z,2.75
2022-10-19T18:55:10.979Z,2.97
2022-10-19T18:58:13.055Z,2.40
2022-10-19T19:01:24.160Z,2.15
2022-10-19T19:04:26.424Z,2.03
2022-10-19T19:07:28.529Z,3.42
2022-10-19T19:10:31.377Z,2.25
2022-10-19T19:13:33.771Z,2.05
2022-10-19T19:16:38.106Z,2.55
2022-10-19T19:19:41.403Z,2.10
2022-10-19T19:22:43.369Z,2.08
2022-10-19T19:25:45.585Z,2.30
2022-10-19T19:28:50.752Z,1.80
2022-10-19T19:31:53.697Z,2.75
2022-10-19T19:34:56.326Z,2.15
2022-10-19T19:37:58.359Z,2.20
2022-10-19T19:41:04.652Z,1.55
2022-10-19T19:44:06.709Z,1.80
2022-10-19T19:47:10.229Z,2.88
2022-10-19T19:50:13.349Z,2.38
2022-10-19T19:53:17.815Z,2.33
2022-10-19T19:56:20.954Z,2.20
2022-10-19T19:59:23.079Z,1.83
2022-10-19T20:02:25.197Z,2.20
2022-10-19T20:05:28.805Z,2.15
2022-10-19T20:08:32.036Z,2.67
2022-10-19T20:11:39.642Z,2.10
2022-10-19T20:14:43.977Z,2.88
2022-10-19T20:17:46.247Z,2.40
2022-10-19T20:20:49.329Z,2.58
2022-10-19T20:23:51.751Z,2.92
2022-10-19T20:26:53.819Z,3.35
2022-10-19T20:29:58.769Z,2.40
2022-10-19T20:33:01.090Z,1.75
2022-10-19T20:36:25.772Z,1.80
2022-10-19T20:39:28.178Z,2.00
2022-10-19T20:42:30.310Z,2.63
2022-10-19T20:45:32.481Z,2.53
2022-10-19T20:48:35.102Z,2.50
2022-10-19T20:51:38.569Z,2.00
2022-10-19T20:54:40.561Z,2.42
2022-10-19T20:57:42.679Z,1.92
2022-10-19T21:00:44.771Z,1.95
2022-10-19T21:03:48.271Z,2.35
2022-10-19T21:06:51.847Z,2.22
2022-10-19T21:09:54.794Z,2.50
2022-10-19T21:12:56.884Z,2.28
2022-10-19T21:15:58.890Z,2.70
2022-10-19T21:19:02.884Z,2.35
2022-10-19T21:22:06.408Z,2.38
2022-10-19T21:25:10.137Z,2.28
2022-10-19T21:28:12.347Z,2.13
2022-10-19T21:31:15.615Z,2.53
2022-10-19T21:34:29.187Z,2.30
2022-10-19T21:37:31.177Z,1.70
2022-10-19T21:40:36.970Z,1.58
2022-10-19T21:43:39.011Z,2.22
2022-10-19T21:46:43.641Z,1.75
2022-10-19T21:49:45.761Z,2.17
2022-10-19T21:52:47.786Z,2.00
2022-10-19T21:55:53.824Z,2.22
2022-10-19T21:58:56.431Z,1.75
2022-10-19T22:01:59.914Z,1.95
2022-10-19T22:05:02.562Z,2.00
2022-10-19T22:08:04.810Z,2.13
2022-10-19T22:11:08.385Z,1.55
2022-10-19T22:14:12.528Z,2.13
2022-10-19T22:17:14.677Z,2.58
2022-10-19T22:20:17.950Z,1.98
2022-10-19T22:23:20.171Z,1.73
2022-10-19T22:26:30.812Z,1.25
2022-10-19T22:29:33.088Z,1.90
2022-10-19T22:32:35.256Z,2.33
2022-10-19T22:35:37.456Z,2.03
2022-10-19T22:38:40.839Z,1.98
2022-10-19T22:41:43.809Z,1.52
2022-10-19T22:44:46.170Z,2.22
2022-10-19T22:47:48.267Z,2.40
2022-10-19T22:50:54.295Z,1.50
2022-10-19T22:53:56.400Z,2.42
2022-10-19T22:56:58.465Z,1.50
2022-10-19T23:00:00.444Z,1.63
2022-10-19T23:03:04.514Z,2.13
2022-10-19T23:06:13.103Z,1.75
2022-10-19T23:12:16.894Z,1.60
2022-10-19T23:15:20.140Z,1.40
2022-10-19T23:18:22.447Z,1.48
2022-10-19T23:21:24.470Z,1.23
2022-10-19T23:24:26.530Z,0.80
2022-10-19T23:27:28.540Z,1.25
2022-10-19T23:30:30.719Z,1.02
2022-10-19T23:33:33.294Z,1.40
2022-10-19T23:36:35.218Z,0.98
2022-10-19T23:39:37.208Z,1.02
2022-10-19T23:42:39.226Z,1.13
2022-10-19T23:45:41.278Z,1.27
2022-10-19T23:48:43.715Z,1.10
2022-10-19T23:51:46.015Z,1.10
2022-10-19T23:54:48.142Z,1.52
2022-10-19T23:57:50.150Z,1.25
